sensor_id;sensor_type;location;lat;lon;timestamp;P1;durP1;ratioP1;P2;durP2;ratioP2
16743;SDS011;71724;-33.900;151.182;2023-08-31T00:00:44;7.05;;;1.50;;
16743;SDS011;71724;-33.900;151.182;2023-08-31T00:03:12;9.90;;;1.42;;
16743;SDS011;71724;-33.900;151.182;2023-08-31T00:05:42;8.80;;;1.25;;
16743;SDS011;71724;-33.900;151.182;2023-08-31T00:08:10;8.98;;;1.05;;
16743;SDS011;71724;-33.900;151.182;2023-08-31T00:10:39;6.90;;;1.13;;
16743;SDS011;71724;-33.900;151.182;2023-08-31T00:13:06;7.38;;;1.13;;
16743;SDS011;71724;-33.900;151.182;2023-08-31T00:15:34;7.28;;;1.50;;
16743;SDS011;71724;-33.900;151.182;2023-08-31T00:18:02;14.23;;;1.60;;
16743;SDS011;71724;-33.900;151.182;2023-08-31T00:20:30;10.02;;;1.23;;
16743;SDS011;71724;-33.900;151.182;2023-08-31T00:22:59;7.78;;;1.30;;
16743;SDS011;71724;-33.900;151.182;2023-08-31T00:25:27;7.25;;;1.58;;
16743;SDS011;71724;-33.900;151.182;2023-08-31T00:27:54;6.38;;;1.10;;
16743;SDS011;71724;-33.900;151.182;2023-08-31T00:30:23;7.93;;;2.03;;
16743;SDS011;71724;-33.900;151.182;2023-08-31T00:32:55;7.95;;;1.30;;
16743;SDS011;71724;-33.900;151.182;2023-08-31T00:35:25;3.72;;;1.05;;
16743;SDS011;71724;-33.900;151.182;2023-08-31T00:37:56;6.88;;;1.60;;
16743;SDS011;71724;-33.900;151.182;2023-08-31T00:40:27;8.77;;;1.63;;
16743;SDS011;71724;-33.900;151.182;2023-08-31T00:42:56;6.70;;;1.25;;
16743;SDS011;71724;-33.900;151.182;2023-08-31T00:45:24;7.70;;;1.25;;
16743;SDS011;71724;-33.900;151.182;2023-08-31T00:47:51;7.30;;;1.70;;
16743;SDS011;71724;-33.900;151.182;2023-08-31T00:50:20;6.35;;;1.38;;
16743;SDS011;71724;-33.900;151.182;2023-08-31T00:52:47;7.35;;;1.42;;
16743;SDS011;71724;-33.900;151.182;2023-08-31T00:55:14;10.85;;;2.03;;
16743;SDS011;71724;-33.900;151.182;2023-08-31T00:57:43;8.45;;;1.30;;
16743;SDS011;71724;-33.900;151.182;2023-08-31T01:00:11;8.50;;;1.92;;
16743;SDS011;71724;-33.900;151.182;2023-08-31T01:05:39;9.57;;;1.65;;
16743;SDS011;71724;-33.900;151.182;2023-08-31T01:08:39;9.70;;;1.60;;
16743;SDS011;71724;-33.900;151.182;2023-08-31T01:11:24;5.72;;;1.35;;
16743;SDS011;71724;-33.900;151.182;2023-08-31T01:14:16;12.90;;;1.95;;
16743;SDS011;71724;-33.900;151.182;2023-08-31T01:16:45;9.32;;;1.77;;
16743;SDS011;71724;-33.900;151.182;2023-08-31T01:22:11;8.63;;;1.70;;
16743;SDS011;71724;-33.900;151.182;2023-08-31T01:24:59;7.82;;;1.40;;
16743;SDS011;71724;-33.900;151.182;2023-08-31T01:27:30;7.05;;;1.73;;
16743;SDS011;71724;-33.900;151.182;2023-08-31T01:29:58;12.20;;;2.10;;
16743;SDS011;71724;-33.900;151.182;2023-08-31T01:32:25;11.55;;;1.85;;
16743;SDS011;71724;-33.900;151.182;2023-08-31T01:34:54;8.30;;;1.50;;
16743;SDS011;71724;-33.900;151.182;2023-08-31T01:38:08;11.77;;;1.65;;
16743;SDS011;71724;-33.900;151.182;2023-08-31T01:40:20;5.57;;;1.70;;
16743;SDS011;71724;-33.900;151.182;2023-08-31T01:43:02;8.93;;;1.52;;
16743;SDS011;71724;-33.900;151.182;2023-08-31T01:45:31;10.27;;;1.77;;
16743;SDS011;71724;-33.900;151.182;2023-08-31T01:47:59;5.65;;;1.40;;
16743;SDS011;71724;-33.900;151.182;2023-08-31T01:50:27;9.35;;;1.90;;
16743;SDS011;71724;-33.900;151.182;2023-08-31T01:52:54;10.00;;;1.45;;
16743;SDS011;71724;-33.900;151.182;2023-08-31T01:55:23;6.35;;;1.60;;
16743;SDS011;71724;-33.900;151.182;2023-08-31T01:57:51;8.48;;;1.38;;
16743;SDS011;71724;-33.900;151.182;2023-08-31T02:00:18;13.02;;;2.33;;
16743;SDS011;71724;-33.900;151.182;2023-08-31T02:02:46;11.30;;;2.13;;
16743;SDS011;71724;-33.900;151.182;2023-08-31T02:05:14;6.35;;;1.30;;
16743;SDS011;71724;-33.900;151.182;2023-08-31T02:07:41;6.00;;;1.63;;
16743;SDS011;71724;-33.900;151.182;2023-08-31T02:10:09;6.88;;;1.50;;
16743;SDS011;71724;-33.900;151.182;2023-08-31T02:12:36;9.10;;;1.77;;
16743;SDS011;71724;-33.900;151.182;2023-08-31T02:15:04;9.63;;;1.75;;
16743;SDS011;71724;-33.900;151.182;2023-08-31T02:17:33;12.35;;;1.63;;
16743;SDS011;71724;-33.900;151.182;2023-08-31T02:20:01;12.93;;;1.77;;
16743;SDS011;71724;-33.900;151.182;2023-08-31T02:22:34;9.70;;;1.58;;
16743;SDS011;71724;-33.900;151.182;2023-08-31T02:25:01;10.00;;;1.50;;
16743;SDS011;71724;-33.900;151.182;2023-08-31T02:27:29;6.38;;;1.30;;
16743;SDS011;71724;-33.900;151.182;2023-08-31T02:29:56;6.32;;;1.50;;
16743;SDS011;71724;-33.900;151.182;2023-08-31T02:32:24;9.68;;;1.30;;
16743;SDS011;71724;-33.900;151.182;2023-08-31T02:34:51;4.47;;;1.10;;
16743;SDS011;71724;-33.900;151.182;2023-08-31T02:37:19;11.27;;;1.60;;
16743;SDS011;71724;-33.900;151.182;2023-08-31T02:39:46;7.55;;;1.40;;
16743;SDS011;71724;-33.900;151.182;2023-08-31T02:42:14;7.05;;;1.40;;
16743;SDS011;71724;-33.900;151.182;2023-08-31T02:44:41;9.90;;;1.52;;
16743;SDS011;71724;-33.900;151.182;2023-08-31T02:47:09;10.75;;;1.65;;
16743;SDS011;71724;-33.900;151.182;2023-08-31T02:49:39;11.77;;;1.40;;
16743;SDS011;71724;-33.900;151.182;2023-08-31T02:52:06;14.57;;;1.70;;
16743;SDS011;71724;-33.900;151.182;2023-08-31T02:54:34;6.93;;;1.40;;
16743;SDS011;71724;-33.900;151.182;2023-08-31T02:57:01;10.45;;;1.40;;
16743;SDS011;71724;-33.900;151.182;2023-08-31T02:59:29;10.35;;;1.63;;
16743;SDS011;71724;-33.900;151.182;2023-08-31T03:02:01;8.85;;;1.55;;
16743;SDS011;71724;-33.900;151.182;2023-08-31T03:04:31;5.95;;;1.35;;
16743;SDS011;71724;-33.900;151.182;2023-08-31T03:06:58;9.52;;;1.30;;
16743;SDS011;71724;-33.900;151.182;2023-08-31T03:09:26;9.35;;;1.60;;
16743;SDS011;71724;-33.900;151.182;2023-08-31T03:11:53;10.30;;;1.60;;
16743;SDS011;71724;-33.900;151.182;2023-08-31T03:14:21;9.90;;;1.52;;
16743;SDS011;71724;-33.900;151.182;2023-08-31T03:16:49;6.72;;;1.50;;
16743;SDS011;71724;-33.900;151.182;2023-08-31T03:19:16;9.43;;;1.55;;
16743;SDS011;71724;-33.900;151.182;2023-08-31T03:21:44;5.07;;;1.10;;
16743;SDS011;71724;-33.900;151.182;2023-08-31T03:24:11;6.75;;;1.55;;
16743;SDS011;71724;-33.900;151.182;2023-08-31T03:26:38;7.88;;;1.50;;
16743;SDS011;71724;-33.900;151.182;2023-08-31T03:29:06;5.05;;;1.23;;
16743;SDS011;71724;-33.900;151.182;2023-08-31T03:31:34;6.28;;;1.10;;
16743;SDS011;71724;-33.900;151.182;2023-08-31T03:34:02;11.95;;;1.60;;
16743;SDS011;71724;-33.900;151.182;2023-08-31T03:36:29;7.93;;;1.83;;
16743;SDS011;71724;-33.900;151.182;2023-08-31T03:38:56;9.18;;;1.55;;
16743;SDS011;71724;-33.900;151.182;2023-08-31T03:41:24;6.03;;;1.60;;
16743;SDS011;71724;-33.900;151.182;2023-08-31T03:43:51;6.15;;;1.48;;
16743;SDS011;71724;-33.900;151.182;2023-08-31T03:46:19;13.80;;;1.55;;
16743;SDS011;71724;-33.900;151.182;2023-08-31T03:48:46;7.43;;;1.25;;
16743;SDS011;71724;-33.900;151.182;2023-08-31T03:51:13;7.20;;;1.55;;
16743;SDS011;71724;-33.900;151.182;2023-08-31T03:53:41;8.90;;;1.52;;
16743;SDS011;71724;-33.900;151.182;2023-08-31T03:56:09;8.80;;;1.80;;
16743;SDS011;71724;-33.900;151.182;2023-08-31T03:58:37;7.22;;;1.45;;
16743;SDS011;71724;-33.900;151.182;2023-08-31T04:01:04;7.53;;;1.50;;
16743;SDS011;71724;-33.900;151.182;2023-08-31T04:03:31;7.40;;;1.63;;
16743;SDS011;71724;-33.900;151.182;2023-08-31T04:06:00;6.28;;;1.55;;
16743;SDS011;71724;-33.900;151.182;2023-08-31T04:08:28;7.10;;;1.33;;
16743;SDS011;71724;-33.900;151.182;2023-08-31T04:10:58;6.07;;;1.17;;
16743;SDS011;71724;-33.900;151.182;2023-08-31T04:13:26;7.70;;;1.55;;
16743;SDS011;71724;-33.900;151.182;2023-08-31T04:15:53;6.70;;;1.20;;
16743;SDS011;71724;-33.900;151.182;2023-08-31T04:18:21;6.95;;;1.30;;
16743;SDS011;71724;-33.900;151.182;2023-08-31T04:20:52;5.45;;;1.35;;
16743;SDS011;71724;-33.900;151.182;2023-08-31T04:23:20;6.30;;;1.30;;
16743;SDS011;71724;-33.900;151.182;2023-08-31T04:25:48;5.05;;;1.10;;
16743;SDS011;71724;-33.900;151.182;2023-08-31T04:28:17;7.03;;;1.20;;
16743;SDS011;71724;-33.900;151.182;2023-08-31T04:30:44;8.40;;;1.90;;
16743;SDS011;71724;-33.900;151.182;2023-08-31T04:33:12;7.20;;;1.73;;
16743;SDS011;71724;-33.900;151.182;2023-08-31T04:35:39;11.57;;;1.60;;
16743;SDS011;71724;-33.900;151.182;2023-08-31T04:38:06;9.43;;;1.42;;
16743;SDS011;71724;-33.900;151.182;2023-08-31T04:40:34;6.80;;;1.27;;
16743;SDS011;71724;-33.900;151.182;2023-08-31T04:43:04;5.93;;;1.15;;
16743;SDS011;71724;-33.900;151.182;2023-08-31T04:45:32;9.57;;;1.75;;
16743;SDS011;71724;-33.900;151.182;2023-08-31T04:47:59;5.80;;;1.55;;
16743;SDS011;71724;-33.900;151.182;2023-08-31T04:50:26;9.93;;;1.65;;
16743;SDS011;71724;-33.900;151.182;2023-08-31T04:52:54;4.18;;;1.20;;
16743;SDS011;71724;-33.900;151.182;2023-08-31T04:55:22;4.22;;;1.13;;
16743;SDS011;71724;-33.900;151.182;2023-08-31T04:57:51;7.45;;;1.40;;
16743;SDS011;71724;-33.900;151.182;2023-08-31T05:00:18;9.32;;;1.55;;
16743;SDS011;71724;-33.900;151.182;2023-08-31T05:02:45;10.40;;;1.35;;
16743;SDS011;71724;-33.900;151.182;2023-08-31T05:05:13;8.52;;;1.30;;
16743;SDS011;71724;-33.900;151.182;2023-08-31T05:07:40;6.95;;;1.50;;
16743;SDS011;71724;-33.900;151.182;2023-08-31T05:10:09;7.53;;;1.80;;
16743;SDS011;71724;-33.900;151.182;2023-08-31T05:12:37;9.30;;;1.52;;
16743;SDS011;71724;-33.900;151.182;2023-08-31T05:15:04;7.88;;;1.65;;
16743;SDS011;71724;-33.900;151.182;2023-08-31T05:17:32;7.38;;;1.40;;
16743;SDS011;71724;-33.900;151.182;2023-08-31T05:20:00;9.00;;;1.60;;
16743;SDS011;71724;-33.900;151.182;2023-08-31T05:22:29;6.22;;;1.73;;
16743;SDS011;71724;-33.900;151.182;2023-08-31T05:24:57;6.55;;;1.30;;
16743;SDS011;71724;-33.900;151.182;2023-08-31T05:27:24;5.57;;;1.30;;
16743;SDS011;71724;-33.900;151.182;2023-08-31T05:29:54;5.55;;;1.50;;
16743;SDS011;71724;-33.900;151.182;2023-08-31T05:32:22;10.00;;;1.65;;
16743;SDS011;71724;-33.900;151.182;2023-08-31T05:34:49;7.43;;;1.40;;
16743;SDS011;71724;-33.900;151.182;2023-08-31T05:37:16;7.18;;;1.30;;
16743;SDS011;71724;-33.900;151.182;2023-08-31T05:39:47;8.68;;;1.30;;
16743;SDS011;71724;-33.900;151.182;2023-08-31T05:42:15;3.45;;;0.80;;
16743;SDS011;71724;-33.900;151.182;2023-08-31T05:44:43;8.23;;;1.40;;
16743;SDS011;71724;-33.900;151.182;2023-08-31T05:47:11;4.50;;;1.10;;
16743;SDS011;71724;-33.900;151.182;2023-08-31T05:49:38;6.72;;;1.55;;
16743;SDS011;71724;-33.900;151.182;2023-08-31T05:52:06;5.95;;;1.50;;
16743;SDS011;71724;-33.900;151.182;2023-08-31T05:54:34;7.75;;;1.40;;
16743;SDS011;71724;-33.900;151.182;2023-08-31T05:57:02;4.43;;;1.17;;
16743;SDS011;71724;-33.900;151.182;2023-08-31T05:59:31;6.65;;;1.35;;
16743;SDS011;71724;-33.900;151.182;2023-08-31T06:01:58;6.88;;;1.63;;
16743;SDS011;71724;-33.900;151.182;2023-08-31T06:04:26;8.32;;;1.27;;
16743;SDS011;71724;-33.900;151.182;2023-08-31T06:06:53;6.90;;;1.40;;
16743;SDS011;71724;-33.900;151.182;2023-08-31T06:09:20;6.93;;;1.38;;
16743;SDS011;71724;-33.900;151.182;2023-08-31T06:11:48;4.57;;;1.65;;
16743;SDS011;71724;-33.900;151.182;2023-08-31T06:14:15;6.95;;;1.50;;
16743;SDS011;71724;-33.900;151.182;2023-08-31T06:16:42;8.18;;;1.60;;
16743;SDS011;71724;-33.900;151.182;2023-08-31T06:19:10;6.47;;;1.20;;
16743;SDS011;71724;-33.900;151.182;2023-08-31T06:21:41;9.52;;;1.92;;
16743;SDS011;71724;-33.900;151.182;2023-08-31T06:24:08;10.73;;;1.63;;
16743;SDS011;71724;-33.900;151.182;2023-08-31T06:26:39;6.70;;;1.65;;
16743;SDS011;71724;-33.900;151.182;2023-08-31T06:29:06;7.47;;;1.35;;
16743;SDS011;71724;-33.900;151.182;2023-08-31T06:31:36;11.60;;;1.70;;
16743;SDS011;71724;-33.900;151.182;2023-08-31T06:34:03;7.68;;;1.35;;
16743;SDS011;71724;-33.900;151.182;2023-08-31T06:36:32;5.35;;;1.10;;
16743;SDS011;71724;-33.900;151.182;2023-08-31T06:39:00;7.28;;;1.33;;
16743;SDS011;71724;-33.900;151.182;2023-08-31T06:41:27;2.85;;;1.08;;
16743;SDS011;71724;-33.900;151.182;2023-08-31T06:43:54;9.02;;;1.27;;
16743;SDS011;71724;-33.900;151.182;2023-08-31T06:46:22;7.38;;;1.40;;
16743;SDS011;71724;-33.900;151.182;2023-08-31T06:48:49;4.60;;;1.10;;
16743;SDS011;71724;-33.900;151.182;2023-08-31T06:51:17;7.13;;;1.35;;
16743;SDS011;71724;-33.900;151.182;2023-08-31T06:53:44;7.43;;;1.42;;
16743;SDS011;71724;-33.900;151.182;2023-08-31T06:56:12;9.45;;;1.42;;
16743;SDS011;71724;-33.900;151.182;2023-08-31T06:58:39;7.10;;;1.55;;
16743;SDS011;71724;-33.900;151.182;2023-08-31T07:01:07;10.05;;;1.63;;
16743;SDS011;71724;-33.900;151.182;2023-08-31T07:03:35;5.93;;;1.20;;
16743;SDS011;71724;-33.900;151.182;2023-08-31T07:06:05;5.63;;;1.13;;
16743;SDS011;71724;-33.900;151.182;2023-08-31T07:08:32;5.40;;;1.10;;
16743;SDS011;71724;-33.900;151.182;2023-08-31T07:11:00;8.68;;;1.58;;
16743;SDS011;71724;-33.900;151.182;2023-08-31T07:13:27;6.97;;;1.20;;
16743;SDS011;71724;-33.900;151.182;2023-08-31T07:15:54;9.25;;;1.25;;
16743;SDS011;71724;-33.900;151.182;2023-08-31T07:18:22;10.02;;;1.30;;
16743;SDS011;71724;-33.900;151.182;2023-08-31T07:20:49;4.30;;;0.88;;
16743;SDS011;71724;-33.900;151.182;2023-08-31T07:23:18;3.70;;;1.10;;
16743;SDS011;71724;-33.900;151.182;2023-08-31T07:25:45;13.70;;;1.45;;
16743;SDS011;71724;-33.900;151.182;2023-08-31T07:28:12;5.43;;;1.10;;
16743;SDS011;71724;-33.900;151.182;2023-08-31T07:30:40;10.48;;;1.40;;
16743;SDS011;71724;-33.900;151.182;2023-08-31T07:33:07;8.60;;;1.60;;
16743;SDS011;71724;-33.900;151.182;2023-08-31T07:35:35;3.88;;;1.35;;
16743;SDS011;71724;-33.900;151.182;2023-08-31T07:38:03;8.13;;;1.73;;
16743;SDS011;71724;-33.900;151.182;2023-08-31T07:40:31;6.90;;;1.55;;
16743;SDS011;71724;-33.900;151.182;2023-08-31T07:42:59;6.15;;;1.20;;
16743;SDS011;71724;-33.900;151.182;2023-08-31T07:45:26;3.90;;;1.42;;
16743;SDS011;71724;-33.900;151.182;2023-08-31T07:47:54;5.07;;;1.20;;
16743;SDS011;71724;-33.900;151.182;2023-08-31T07:50:22;6.10;;;1.40;;
16743;SDS011;71724;-33.900;151.182;2023-08-31T07:52:49;6.72;;;1.30;;
16743;SDS011;71724;-33.900;151.182;2023-08-31T07:55:17;7.75;;;1.48;;
16743;SDS011;71724;-33.900;151.182;2023-08-31T07:57:44;10.88;;;2.42;;
16743;SDS011;71724;-33.900;151.182;2023-08-31T08:00:12;5.78;;;1.70;;
16743;SDS011;71724;-33.900;151.182;2023-08-31T08:02:46;5.32;;;1.58;;
16743;SDS011;71724;-33.900;151.182;2023-08-31T08:05:13;8.25;;;1.80;;
16743;SDS011;71724;-33.900;151.182;2023-08-31T08:07:41;5.40;;;1.65;;
16743;SDS011;71724;-33.900;151.182;2023-08-31T08:10:09;5.40;;;1.38;;
16743;SDS011;71724;-33.900;151.182;2023-08-31T08:12:38;9.98;;;1.70;;
16743;SDS011;71724;-33.900;151.182;2023-08-31T08:15:06;7.00;;;1.60;;
16743;SDS011;71724;-33.900;151.182;2023-08-31T08:17:34;6.63;;;1.75;;
16743;SDS011;71724;-33.900;151.182;2023-08-31T08:20:01;8.23;;;1.80;;
16743;SDS011;71724;-33.900;151.182;2023-08-31T08:22:29;6.47;;;1.65;;
16743;SDS011;71724;-33.900;151.182;2023-08-31T08:24:56;6.78;;;1.98;;
16743;SDS011;71724;-33.900;151.182;2023-08-31T08:27:23;6.68;;;1.83;;
16743;SDS011;71724;-33.900;151.182;2023-08-31T08:29:51;7.93;;;1.90;;
16743;SDS011;71724;-33.900;151.182;2023-08-31T08:32:18;8.88;;;2.10;;
16743;SDS011;71724;-33.900;151.182;2023-08-31T08:34:49;7.13;;;1.70;;
16743;SDS011;71724;-33.900;151.182;2023-08-31T08:37:17;6.93;;;2.13;;
16743;SDS011;71724;-33.900;151.182;2023-08-31T08:39:48;9.75;;;2.28;;
16743;SDS011;71724;-33.900;151.182;2023-08-31T08:42:16;9.65;;;3.05;;
16743;SDS011;71724;-33.900;151.182;2023-08-31T08:44:45;12.93;;;2.50;;
16743;SDS011;71724;-33.900;151.182;2023-08-31T08:47:13;11.10;;;2.33;;
16743;SDS011;71724;-33.900;151.182;2023-08-31T08:49:44;7.55;;;2.20;;
16743;SDS011;71724;-33.900;151.182;2023-08-31T08:52:15;10.02;;;2.50;;
16743;SDS011;71724;-33.900;151.182;2023-08-31T08:54:42;9.95;;;2.35;;
16743;SDS011;71724;-33.900;151.182;2023-08-31T08:57:11;7.22;;;2.05;;
16743;SDS011;71724;-33.900;151.182;2023-08-31T08:59:39;7.90;;;2.35;;
16743;SDS011;71724;-33.900;151.182;2023-08-31T09:02:07;9.32;;;2.08;;
16743;SDS011;71724;-33.900;151.182;2023-08-31T09:04:37;11.32;;;2.75;;
16743;SDS011;71724;-33.900;151.182;2023-08-31T09:07:04;8.50;;;2.70;;
16743;SDS011;71724;-33.900;151.182;2023-08-31T09:09:32;9.00;;;2.28;;
16743;SDS011;71724;-33.900;151.182;2023-08-31T09:12:14;9.10;;;2.33;;
16743;SDS011;71724;-33.900;151.182;2023-08-31T09:14:42;8.98;;;2.08;;
16743;SDS011;71724;-33.900;151.182;2023-08-31T09:17:10;5.68;;;2.20;;
16743;SDS011;71724;-33.900;151.182;2023-08-31T09:19:37;6.32;;;2.35;;
16743;SDS011;71724;-33.900;151.182;2023-08-31T09:22:04;5.97;;;2.22;;
16743;SDS011;71724;-33.900;151.182;2023-08-31T09:24:40;11.65;;;2.60;;
16743;SDS011;71724;-33.900;151.182;2023-08-31T09:27:08;7.75;;;2.25;;
16743;SDS011;71724;-33.900;151.182;2023-08-31T09:29:37;8.40;;;2.28;;
16743;SDS011;71724;-33.900;151.182;2023-08-31T09:32:10;10.73;;;2.78;;
16743;SDS011;71724;-33.900;151.182;2023-08-31T09:34:45;5.63;;;2.38;;
16743;SDS011;71724;-33.900;151.182;2023-08-31T09:37:15;11.18;;;2.75;;
16743;SDS011;71724;-33.900;151.182;2023-08-31T09:39:43;14.20;;;3.35;;
16743;SDS011;71724;-33.900;151.182;2023-08-31T09:42:11;9.15;;;3.65;;
16743;SDS011;71724;-33.900;151.182;2023-08-31T09:44:45;11.55;;;3.15;;
16743;SDS011;71724;-33.900;151.182;2023-08-31T09:47:15;8.30;;;3.03;;
16743;SDS011;71724;-33.900;151.182;2023-08-31T09:49:45;10.38;;;2.78;;
16743;SDS011;71724;-33.900;151.182;2023-08-31T09:52:13;7.82;;;2.42;;
16743;SDS011;71724;-33.900;151.182;2023-08-31T09:54:43;7.95;;;2.60;;
16743;SDS011;71724;-33.900;151.182;2023-08-31T09:57:11;12.75;;;2.67;;
16743;SDS011;71724;-33.900;151.182;2023-08-31T09:59:40;9.65;;;2.83;;
16743;SDS011;71724;-33.900;151.182;2023-08-31T10:02:09;12.90;;;3.78;;
16743;SDS011;71724;-33.900;151.182;2023-08-31T10:04:37;8.38;;;2.65;;
16743;SDS011;71724;-33.900;151.182;2023-08-31T10:07:05;8.35;;;2.85;;
16743;SDS011;71724;-33.900;151.182;2023-08-31T10:09:35;8.18;;;2.70;;
16743;SDS011;71724;-33.900;151.182;2023-08-31T10:12:04;8.52;;;3.00;;
16743;SDS011;71724;-33.900;151.182;2023-08-31T10:14:32;9.73;;;2.97;;
16743;SDS011;71724;-33.900;151.182;2023-08-31T10:17:03;10.48;;;3.92;;
16743;SDS011;71724;-33.900;151.182;2023-08-31T10:19:31;10.98;;;3.70;;
16743;SDS011;71724;-33.900;151.182;2023-08-31T10:21:58;10.35;;;3.60;;
16743;SDS011;71724;-33.900;151.182;2023-08-31T10:27:38;7.00;;;3.05;;
16743;SDS011;71724;-33.900;151.182;2023-08-31T10:30:15;9.77;;;2.60;;
16743;SDS011;71724;-33.900;151.182;2023-08-31T10:32:46;16.13;;;3.13;;
16743;SDS011;71724;-33.900;151.182;2023-08-31T10:38:24;8.07;;;2.95;;
16743;SDS011;71724;-33.900;151.182;2023-08-31T10:43:47;10.60;;;3.55;;
16743;SDS011;71724;-33.900;151.182;2023-08-31T10:48:55;13.57;;;3.50;;
16743;SDS011;71724;-33.900;151.182;2023-08-31T10:51:24;11.63;;;3.05;;
16743;SDS011;71724;-33.900;151.182;2023-08-31T10:54:04;8.52;;;2.97;;
16743;SDS011;71724;-33.900;151.182;2023-08-31T10:56:52;9.55;;;2.63;;
16743;SDS011;71724;-33.900;151.182;2023-08-31T10:59:26;9.50;;;3.22;;
16743;SDS011;71724;-33.900;151.182;2023-08-31T11:05:14;12.55;;;3.88;;
16743;SDS011;71724;-33.900;151.182;2023-08-31T11:07:49;7.43;;;3.15;;
16743;SDS011;71724;-33.900;151.182;2023-08-31T11:10:22;10.32;;;3.30;;
16743;SDS011;71724;-33.900;151.182;2023-08-31T11:12:53;6.80;;;3.13;;
16743;SDS011;71724;-33.900;151.182;2023-08-31T11:15:24;12.73;;;4.10;;
16743;SDS011;71724;-33.900;151.182;2023-08-31T11:17:55;12.40;;;3.75;;
16743;SDS011;71724;-33.900;151.182;2023-08-31T11:20:23;10.50;;;4.90;;
16743;SDS011;71724;-33.900;151.182;2023-08-31T11:22:54;12.27;;;3.72;;
16743;SDS011;71724;-33.900;151.182;2023-08-31T11:25:22;11.52;;;4.32;;
16743;SDS011;71724;-33.900;151.182;2023-08-31T11:27:54;15.70;;;5.32;;
16743;SDS011;71724;-33.900;151.182;2023-08-31T11:30:28;11.73;;;3.88;;
16743;SDS011;71724;-33.900;151.182;2023-08-31T11:33:03;11.82;;;4.22;;
16743;SDS011;71724;-33.900;151.182;2023-08-31T11:35:40;12.82;;;4.45;;
16743;SDS011;71724;-33.900;151.182;2023-08-31T11:38:10;10.88;;;4.47;;
16743;SDS011;71724;-33.900;151.182;2023-08-31T11:43:14;14.30;;;3.58;;
16743;SDS011;71724;-33.900;151.182;2023-08-31T11:45:42;10.25;;;3.30;;
16743;SDS011;71724;-33.900;151.182;2023-08-31T11:48:10;8.20;;;3.38;;
16743;SDS011;71724;-33.900;151.182;2023-08-31T11:50:37;11.00;;;4.00;;
16743;SDS011;71724;-33.900;151.182;2023-08-31T11:53:07;9.55;;;3.38;;
16743;SDS011;71724;-33.900;151.182;2023-08-31T11:55:35;8.70;;;3.58;;
16743;SDS011;71724;-33.900;151.182;2023-08-31T11:58:02;10.02;;;3.53;;
16743;SDS011;71724;-33.900;151.182;2023-08-31T12:00:33;9.95;;;3.65;;
16743;SDS011;71724;-33.900;151.182;2023-08-31T12:03:01;17.00;;;4.75;;
16743;SDS011;71724;-33.900;151.182;2023-08-31T12:05:44;13.10;;;4.07;;
16743;SDS011;71724;-33.900;151.182;2023-08-31T12:08:12;12.05;;;4.10;;
16743;SDS011;71724;-33.900;151.182;2023-08-31T12:10:42;8.63;;;3.70;;
16743;SDS011;71724;-33.900;151.182;2023-08-31T12:13:10;15.43;;;4.82;;
16743;SDS011;71724;-33.900;151.182;2023-08-31T12:15:41;9.27;;;3.60;;
16743;SDS011;71724;-33.900;151.182;2023-08-31T12:18:12;10.75;;;3.67;;
16743;SDS011;71724;-33.900;151.182;2023-08-31T12:20:50;9.15;;;3.85;;
16743;SDS011;71724;-33.900;151.182;2023-08-31T12:23:18;10.07;;;3.53;;
16743;SDS011;71724;-33.900;151.182;2023-08-31T12:25:49;12.57;;;4.30;;
16743;SDS011;71724;-33.900;151.182;2023-08-31T12:28:21;11.10;;;3.67;;
16743;SDS011;71724;-33.900;151.182;2023-08-31T12:30:53;11.93;;;4.10;;
16743;SDS011;71724;-33.900;151.182;2023-08-31T12:33:24;12.23;;;4.07;;
16743;SDS011;71724;-33.900;151.182;2023-08-31T12:35:51;12.40;;;3.88;;
16743;SDS011;71724;-33.900;151.182;2023-08-31T12:38:20;10.45;;;3.80;;
16743;SDS011;71724;-33.900;151.182;2023-08-31T12:40:47;11.15;;;4.10;;
16743;SDS011;71724;-33.900;151.182;2023-08-31T12:43:16;9.13;;;3.75;;
16743;SDS011;71724;-33.900;151.182;2023-08-31T12:45:43;11.45;;;4.30;;
16743;SDS011;71724;-33.900;151.182;2023-08-31T12:48:11;17.60;;;5.78;;
16743;SDS011;71724;-33.900;151.182;2023-08-31T12:50:38;13.55;;;5.25;;
16743;SDS011;71724;-33.900;151.182;2023-08-31T12:53:06;14.50;;;5.15;;
16743;SDS011;71724;-33.900;151.182;2023-08-31T12:55:33;15.57;;;5.00;;
16743;SDS011;71724;-33.900;151.182;2023-08-31T12:58:02;10.65;;;4.60;;
16743;SDS011;71724;-33.900;151.182;2023-08-31T13:00:30;13.65;;;4.38;;
16743;SDS011;71724;-33.900;151.182;2023-08-31T13:02:58;11.70;;;4.38;;
16743;SDS011;71724;-33.900;151.182;2023-08-31T13:05:29;13.07;;;4.63;;
16743;SDS011;71724;-33.900;151.182;2023-08-31T13:07:56;11.60;;;4.53;;
16743;SDS011;71724;-33.900;151.182;2023-08-31T13:10:24;13.90;;;4.13;;
16743;SDS011;71724;-33.900;151.182;2023-08-31T13:12:52;13.27;;;4.38;;
16743;SDS011;71724;-33.900;151.182;2023-08-31T13:15:20;9.48;;;3.88;;
16743;SDS011;71724;-33.900;151.182;2023-08-31T13:17:47;10.60;;;4.22;;
16743;SDS011;71724;-33.900;151.182;2023-08-31T13:20:15;13.55;;;4.45;;
16743;SDS011;71724;-33.900;151.182;2023-08-31T13:22:43;10.13;;;4.03;;
16743;SDS011;71724;-33.900;151.182;2023-08-31T13:25:13;12.50;;;3.88;;
16743;SDS011;71724;-33.900;151.182;2023-08-31T13:27:40;10.00;;;4.22;;
16743;SDS011;71724;-33.900;151.182;2023-08-31T13:30:08;9.07;;;3.50;;
16743;SDS011;71724;-33.900;151.182;2023-08-31T13:32:38;10.50;;;3.55;;
16743;SDS011;71724;-33.900;151.182;2023-08-31T13:35:05;11.68;;;3.45;;
16743;SDS011;71724;-33.900;151.182;2023-08-31T13:37:33;12.18;;;3.95;;
16743;SDS011;71724;-33.900;151.182;2023-08-31T13:40:01;10.32;;;3.78;;
16743;SDS011;71724;-33.900;151.182;2023-08-31T13:42:33;14.57;;;4.13;;
16743;SDS011;71724;-33.900;151.182;2023-08-31T13:45:06;7.07;;;3.55;;
16743;SDS011;71724;-33.900;151.182;2023-08-31T13:47:34;9.70;;;3.50;;
16743;SDS011;71724;-33.900;151.182;2023-08-31T13:50:12;9.13;;;3.33;;
16743;SDS011;71724;-33.900;151.182;2023-08-31T13:52:40;11.90;;;3.13;;
16743;SDS011;71724;-33.900;151.182;2023-08-31T13:55:08;8.52;;;2.95;;
16743;SDS011;71724;-33.900;151.182;2023-08-31T13:57:35;10.60;;;2.70;;
16743;SDS011;71724;-33.900;151.182;2023-08-31T14:00:04;6.35;;;2.35;;
16743;SDS011;71724;-33.900;151.182;2023-08-31T14:02:37;5.53;;;1.77;;
16743;SDS011;71724;-33.900;151.182;2023-08-31T14:05:06;9.20;;;2.80;;
16743;SDS011;71724;-33.900;151.182;2023-08-31T14:07:34;4.47;;;1.73;;
16743;SDS011;71724;-33.900;151.182;2023-08-31T14:10:02;6.18;;;1.80;;
16743;SDS011;71724;-33.900;151.182;2023-08-31T14:12:33;5.93;;;1.75;;
16743;SDS011;71724;-33.900;151.182;2023-08-31T14:15:02;6.10;;;1.65;;
16743;SDS011;71724;-33.900;151.182;2023-08-31T14:17:30;4.53;;;1.30;;
16743;SDS011;71724;-33.900;151.182;2023-08-31T14:20:00;4.65;;;1.60;;
16743;SDS011;71724;-33.900;151.182;2023-08-31T14:22:31;5.03;;;1.50;;
16743;SDS011;71724;-33.900;151.182;2023-08-31T14:24:59;5.43;;;1.40;;
16743;SDS011;71724;-33.900;151.182;2023-08-31T14:27:27;2.92;;;1.10;;
16743;SDS011;71724;-33.900;151.182;2023-08-31T14:29:58;4.43;;;1.42;;
16743;SDS011;71724;-33.900;151.182;2023-08-31T14:32:26;6.47;;;1.50;;
16743;SDS011;71724;-33.900;151.182;2023-08-31T14:34:53;4.10;;;1.13;;
16743;SDS011;71724;-33.900;151.182;2023-08-31T14:37:21;4.43;;;1.52;;
16743;SDS011;71724;-33.900;151.182;2023-08-31T14:39:49;4.45;;;1.45;;